Time;durP1;ratioP1;P1;durP2;ratioP2;P2;SDS_P1;SDS_P2;PMS_P1;PMS_P2;Temp;Humidity;BMP_temperature;BMP_pressure;BME280_temperature;BME280_humidity;BME280_pressure;Samples;Min_cycle;Max_cycle;Signal;HPM_P1;HPM_P2
2022/03/30 00:02:24;;;;;;;17.08;7.88;;;;;;;10.53;59.43;98642.03;12211590;19;20042;-79
2022/03/30 00:06:28;;;;;;;15.50;6.60;;;;;;;10.53;60.47;98620.84;12185771;19;20030;-79
2022/03/30 00:10:30;;;;;;;13.65;7.75;;;;;;;10.53;59.92;98623.59;12209202;19;20586;-78
2022/03/30 00:14:36;;;;;;;14.45;7.50;;;;;;;10.44;59.23;98605.97;12198594;19;20489;-78
2022/03/30 00:18:37;;;;;;;17.08;7.88;;;;;;;10.40;59.03;98605.69;12182261;19;20645;-78
2022/03/30 00:22:40;;;;;;;13.82;6.78;;;;;;;10.35;59.08;98597.47;12202399;19;20021;-78
2022/03/30 00:26:42;;;;;;;15.38;7.28;;;;;;;10.33;58.90;98593.34;12203948;19;20013;-79
2022/03/30 00:30:44;;;;;;;19.85;7.78;;;;;;;10.25;58.94;98587.25;12169529;19;20050;-78
2022/03/30 00:34:46;;;;;;;17.42;7.57;;;;;;;10.21;58.88;98580.66;12208055;19;20074;-78
2022/03/30 00:38:47;;;;;;;15.65;7.57;;;;;;;10.14;58.86;98574.63;12204555;19;20091;-78
2022/03/30 00:42:49;;;;;;;12.32;7.20;;;;;;;10.07;58.65;98574.06;12181670;19;20017;-78
2022/03/30 00:46:51;;;;;;;17.70;7.40;;;;;;;10.01;58.68;98578.72;12203382;19;20447;-78
2022/03/30 00:50:53;;;;;;;15.52;7.70;;;;;;;10.01;58.53;98577.91;12205940;19;20028;-78
2022/03/30 00:54:57;;;;;;;20.83;8.52;;;;;;;10.00;58.36;98579.03;12192927;19;20010;-78
2022/03/30 00:59:01;;;;;;;14.23;7.35;;;;;;;10.05;58.31;98581.75;12222120;19;20027;-79
2022/03/30 01:03:02;;;;;;;22.55;8.13;;;;;;;10.10;58.19;98579.00;12220143;19;20537;-78
2022/03/30 01:07:05;;;;;;;14.35;7.65;;;;;;;10.11;58.17;98582.56;12193246;19;20028;-78
2022/03/30 01:11:10;;;;;;;13.50;6.90;;;;;;;10.10;58.42;98583.69;12222531;19;20035;-78
2022/03/30 01:15:12;;;;;;;12.85;6.95;;;;;;;10.11;57.99;98585.34;12221821;19;20078;-79
2022/03/30 01:19:14;;;;;;;;;;;;;;;10.09;58.13;98582.06;12201747;19;20010;-77
2022/03/30 01:23:18;;;;;;;13.48;7.55;;;;;;;10.08;58.40;98570.19;12219830;19;19907;-78
2022/03/30 01:27:23;;;;;;;15.52;7.75;;;;;;;10.09;58.14;98568.28;12185135;19;20006;-78
2022/03/30 01:35:44;;;;;;;14.98;7.47;;;;;;;10.12;57.99;98551.22;12216702;19;20006;-78
2022/03/30 01:39:46;;;;;;;15.63;7.72;;;;;;;10.10;58.47;98550.66;12194820;19;20027;-78
2022/03/30 01:43:48;;;;;;;14.57;7.80;;;;;;;10.07;58.06;98551.22;12212269;19;20146;-78
2022/03/30 01:47:51;;;;;;;17.65;8.43;;;;;;;10.01;58.05;98553.97;12206410;19;20018;-78
2022/03/30 01:51:54;;;;;;;17.50;9.25;;;;;;;10.02;58.15;98554.78;12192765;19;20089;-78
2022/03/30 01:55:56;;;;;;;17.27;8.20;;;;;;;9.96;59.39;98540.22;12216027;19;20011;-77
2022/03/30 01:59:58;;;;;;;18.40;9.10;;;;;;;9.88;60.43;98540.78;12213880;19;20015;-78
2022/03/30 02:04:00;;;;;;;20.00;9.40;;;;;;;9.79;62.59;98536.94;12192122;19;20082;-77
2022/03/30 02:08:02;;;;;;;17.15;9.32;;;;;;;9.71;62.15;98543.00;12213604;19;20482;-78
2022/03/30 02:12:05;;;;;;;20.02;10.38;;;;;;;9.56;63.89;98528.13;12216783;19;20027;-78
2022/03/30 02:16:07;;;;;;;22.25;10.60;;;;;;;9.51;65.52;98530.88;12184076;19;20085;-78
2022/03/30 02:20:11;;;;;;;21.83;10.93;;;;;;;9.39;66.94;98527.56;12213794;19;20086;-78
2022/03/30 02:24:13;;;;;;;19.42;10.40;;;;;;;9.32;66.56;98519.59;12207916;19;20078;-78
2022/03/30 02:28:15;;;;;;;19.38;10.55;;;;;;;9.29;68.39;98519.31;12188323;19;20383;-78
2022/03/30 02:32:18;;;;;;;22.08;10.80;;;;;;;9.25;69.79;98515.44;12215521;19;20605;-79
2022/03/30 02:36:24;;;;;;;20.80;10.85;;;;;;;9.22;70.47;98516.00;12191511;19;20011;-78
2022/03/30 02:40:31;;;;;;;21.02;11.00;;;;;;;9.18;72.36;98503.91;12211464;19;20013;-78
2022/03/30 02:44:34;;;;;;;21.90;11.02;;;;;;;9.12;74.55;98509.38;12212879;19;20716;-78
2022/03/30 02:48:37;;;;;;;20.45;10.50;;;;;;;9.06;74.31;98499.47;12193148;19;20000;-78
2022/03/30 02:52:39;;;;;;;;;;;;;;;9.02;76.05;98495.63;12208917;19;20085;-78
2022/03/30 02:56:41;;;;;;;23.30;11.63;;;;;;;8.89;76.72;98493.41;12211580;19;19911;-78
2022/03/30 03:00:43;;;;;;;26.20;13.50;;;;;;;8.83;77.02;98489.84;12186481;19;20031;-78
2022/03/30 03:04:44;;;;;;;25.90;13.43;;;;;;;8.77;78.00;98498.31;12202566;19;20456;-78
2022/03/30 03:08:46;;;;;;;29.95;14.90;;;;;;;8.66;77.90;98497.47;12212357;19;20862;-78
2022/03/30 03:12:48;;;;;;;29.77;14.32;;;;;;;8.57;78.21;98508.16;12175851;19;20659;-78
2022/03/30 03:16:49;;;;;;;36.78;14.65;;;;;;;8.55;77.58;98493.84;12215303;19;20011;-78
2022/03/30 03:20:51;;;;;;;32.30;15.02;;;;;;;8.56;78.76;98494.66;12215626;19;20412;-78
2022/03/30 03:24:53;;;;;;;35.35;16.02;;;;;;;8.55;80.00;98491.09;12194637;19;20843;-79
2022/03/30 03:28:55;;;;;;;40.35;16.08;;;;;;;8.49;84.35;98483.94;12213297;19;20476;-79
2022/03/30 03:32:57;;;;;;;36.78;17.15;;;;;;;8.40;87.25;98478.16;12208256;19;20380;-78
2022/03/30 03:36:59;;;;;;;41.93;17.03;;;;;;;8.32;86.97;98459.41;12196023;19;20019;-80
2022/03/30 03:41:00;;;;;;;36.17;17.42;;;;;;;8.25;87.08;98439.63;12204116;19;20496;-79
2022/03/30 03:45:05;;;;;;;41.03;18.08;;;;;;;8.18;88.30;98434.41;12208438;19;20020;-79
2022/03/30 03:49:08;;;;;;;37.65;17.67;;;;;;;8.13;87.74;98428.06;12175250;19;20007;-78
2022/03/30 03:53:09;;;;;;;38.38;17.75;;;;;;;8.07;87.39;98418.16;12211685;19;20018;-79
2022/03/30 03:57:12;;;;;;;42.55;17.88;;;;;;;7.97;87.05;98424.41;12194818;19;20033;-79
2022/03/30 04:01:13;;;;;;;38.00;18.23;;;;;;;7.91;86.53;98426.31;12179179;19;20415;-78
2022/03/30 04:05:19;;;;;;;33.50;17.27;;;;;;;7.86;87.35;98428.19;12204656;19;20010;-78
2022/03/30 04:09:23;;;;;;;39.70;18.55;;;;;;;7.85;87.76;98429.28;12183297;19;20014;-78
2022/03/30 04:13:27;;;;;;;40.60;18.13;;;;;;;7.80;87.53;98419.13;12196359;19;20610;-78
2022/03/30 04:17:32;;;;;;;;;;;;;;;7.76;91.51;98404.25;12206672;19;20082;-79
2022/03/30 04:21:36;;;;;;;40.67;18.13;;;;;;;7.67;89.79;98406.69;12181160;19;19919;-79
2022/03/30 04:25:38;;;;;;;40.92;20.60;;;;;;;7.60;90.64;98414.31;12209286;19;20010;-80
2022/03/30 04:29:39;;;;;;;42.67;20.25;;;;;;;7.62;90.95;98414.91;12199314;19;20570;-79
2022/03/30 04:33:42;;;;;;;46.33;19.67;;;;;;;7.64;90.55;98412.69;12188064;19;20090;-80
2022/03/30 04:37:44;;;;;;;39.08;19.05;;;;;;;7.62;91.06;98414.91;12216941;19;20006;-79
2022/03/30 04:41:45;;;;;;;42.92;19.77;;;;;;;7.63;91.24;98410.22;12209626;19;20030;-80
2022/03/30 04:45:47;;;;;;;39.42;19.48;;;;;;;7.58;90.73;98408.28;12182720;19;20022;-80
2022/03/30 04:49:49;;;;;;;43.08;19.48;;;;;;;7.45;94.29;98412.31;12210019;19;20011;-80
2022/03/30 04:53:50;;;;;;;46.03;20.95;;;;;;;7.38;95.53;98405.44;12208992;19;20014;-79
2022/03/30 04:57:53;;;;;;;46.22;19.58;;;;;;;7.40;93.81;98409.53;12180293;19;20095;-79
2022/03/30 05:01:54;;;;;;;49.63;21.38;;;;;;;7.34;91.58;98426.19;12202239;19;20090;-79
2022/03/30 05:05:58;;;;;;;54.33;21.63;;;;;;;7.23;93.42;98420.66;12195357;19;20011;-79
2022/03/30 05:10:06;;;;;;;52.83;22.38;;;;;;;7.28;96.10;98426.16;12178858;19;20010;-79
2022/03/30 05:14:08;;;;;;;51.38;21.30;;;;;;;7.34;97.03;98427.03;12193264;19;20027;-79
2022/03/30 05:18:11;;;;;;;54.53;23.30;;;;;;;7.39;98.70;98418.03;12204852;19;20082;-79
2022/03/30 05:22:13;;;;;;;51.70;22.30;;;;;;;7.28;98.84;98415.19;12178225;19;20021;-78
2022/03/30 05:26:15;;;;;;;59.33;23.67;;;;;;;7.18;100.00;98412.38;12204929;19;20369;-79
2022/03/30 05:30:22;;;;;;;55.90;22.00;;;;;;;7.21;99.15;98419.25;12163421;19;20096;-76
2022/03/30 05:34:30;;;;;;;59.25;25.33;;;;;;;7.12;100.00;98427.13;12198021;19;20078;-76
2022/03/30 05:38:34;;;;;;;57.60;23.98;;;;;;;7.04;100.00;98430.34;12192141;19;20021;-79
2022/03/30 05:42:41;;;;;;;52.25;23.10;;;;;;;7.10;100.00;98421.09;12185853;19;20018;-80
2022/03/30 05:46:43;;;;;;;59.17;25.37;;;;;;;7.05;100.00;98421.88;12204356;19;20046;-76
2022/03/30 05:50:45;;;;;;;63.88;25.48;;;;;;;7.07;100.00;98436.13;12204117;19;20058;-77
2022/03/30 05:54:46;;;;;;;59.40;25.00;;;;;;;7.00;100.00;98438.25;12186325;19;20011;-76
2022/03/30 05:58:49;;;;;;;59.37;24.77;;;;;;;7.16;100.00;98446.59;12212086;19;20081;-76
2022/03/30 06:02:50;;;;;;;65.43;25.73;;;;;;;7.21;100.00;98435.69;12212859;19;20056;-76
2022/03/30 06:06:52;;;;;;;61.42;27.63;;;;;;;7.25;100.00;98451.34;12179329;19;20110;-76
2022/03/30 06:10:54;;;;;;;61.55;24.65;;;;;;;7.32;100.00;98456.63;12202677;19;20442;-76
2022/03/30 06:14:56;;;;;;;57.55;24.45;;;;;;;7.35;100.00;98445.13;12205678;19;20038;-77
2022/03/30 06:18:58;;;;;;;64.93;27.77;;;;;;;7.33;100.00;98454.69;12182533;19;20019;-76
2022/03/30 06:23:00;;;;;;;71.57;28.13;;;;;;;7.27;100.00;98460.13;12198709;19;20013;-76
2022/03/30 06:27:02;;;;;;;52.75;19.85;;;;;;;7.23;100.00;98469.97;12203722;19;20035;-77
2022/03/30 06:31:04;;;;;;;74.72;30.35;;;;;;;7.11;100.00;98473.94;12179335;19;20746;-77
2022/03/30 06:35:07;;;;;;;71.40;28.90;;;;;;;7.05;100.00;98462.16;12176741;19;20009;-77
2022/03/30 06:39:09;;;;;;;87.17;32.63;;;;;;;6.98;100.00;98467.00;12214888;19;19999;-77
2022/03/30 06:43:11;;;;;;;86.80;31.33;;;;;;;6.94;100.00;98463.94;12185208;19;20010;-76
2022/03/30 06:47:13;;;;;;;80.93;29.87;;;;;;;6.92;100.00;98448.84;12211082;19;20086;-76
2022/03/30 06:51:15;;;;;;;81.78;31.17;;;;;;;6.95;100.00;98451.91;12209010;19;20011;-78
2022/03/30 06:55:19;;;;;;;83.57;31.35;;;;;;;6.98;100.00;98458.78;12202122;19;20491;-77
2022/03/30 06:59:25;;;;;;;73.68;30.45;;;;;;;7.07;100.00;98452.56;12208599;19;20009;-77
2022/03/30 07:03:28;;;;;;;85.40;31.13;;;;;;;7.02;100.00;98454.41;12194277;19;20013;-76
2022/03/30 07:11:51;;;;;;;78.90;31.05;;;;;;;7.04;100.00;98449.50;12203450;19;20007;-76
2022/03/30 07:15:53;;;;;;;77.47;31.00;;;;;;;7.09;100.00;98449.56;12188220;19;20018;-77
2022/03/30 07:19:55;;;;;;;74.57;30.33;;;;;;;6.98;100.00;98451.38;12211036;19;20015;-77
2022/03/30 07:23:57;;;;;;;74.65;29.00;;;;;;;6.97;100.00;98441.53;12207154;19;20010;-77
2022/03/30 07:27:59;;;;;;;69.35;29.77;;;;;;;6.96;100.00;98433.56;12188675;19;20435;-77
2022/03/30 07:32:03;;;;;;;74.65;29.75;;;;;;;7.02;100.00;98443.47;12199267;19;20062;-75
2022/03/30 07:36:05;;;;;;;73.32;29.23;;;;;;;7.07;100.00;98432.56;12211030;19;20013;-76
2022/03/30 07:40:09;;;;;;;72.13;27.85;;;;;;;7.02;100.00;98437.97;12178102;19;20020;-77
2022/03/30 07:44:11;;;;;;;80.57;30.33;;;;;;;7.02;100.00;98437.97;12202477;19;20066;-77
2022/03/30 07:48:13;;;;;;;74.07;28.67;;;;;;;6.95;100.00;98430.00;12199583;19;20094;-76
2022/03/30 07:52:18;;;;;;;75.47;29.38;;;;;;;6.95;100.00;98431.91;12185315;19;20022;-76
2022/03/30 07:56:25;;;;;;;78.25;29.42;;;;;;;7.08;100.00;98431.50;12194643;19;20075;-76
2022/03/30 08:00:34;;;;;;;76.40;29.92;;;;;;;7.11;100.00;98430.13;12178576;19;20038;-76
2022/03/30 08:04:43;;;;;;;73.85;28.75;;;;;;;7.17;100.00;98424.44;12194629;19;20034;-77
2022/03/30 08:08:45;;;;;;;69.38;30.48;;;;;;;7.26;100.00;98430.28;12197667;19;20467;-76
2022/03/30 08:12:49;;;;;;;66.68;28.08;;;;;;;7.24;100.00;98441.47;12180887;19;20010;-76
2022/03/30 08:16:51;;;;;;;68.32;27.38;;;;;;;7.27;100.00;98434.66;12208261;19;20014;-77
2022/03/30 08:25:26;;;;;;;63.50;27.30;;;;;;;7.49;100.00;98440.84;12171823;19;20051;-76
2022/03/30 08:29:32;;;;;;;68.63;26.98;;;;;;;7.74;100.00;98448.41;12202849;19;20370;-76
2022/03/30 08:33:34;;;;;;;63.60;26.60;;;;;;;7.84;100.00;98455.06;12184698;19;20021;-76
2022/03/30 08:37:39;;;;;;;69.60;29.20;;;;;;;7.80;100.00;98449.28;12203673;19;20086;-77
2022/03/30 08:41:45;;;;;;;62.85;27.60;;;;;;;7.66;100.00;98445.34;12203935;19;20025;-77
2022/03/30 08:45:55;;;;;;;68.47;26.30;;;;;;;7.74;100.00;98448.41;12173416;19;20010;-78
2022/03/30 08:49:56;;;;;;;59.80;26.38;;;;;;;7.81;100.00;98444.63;12208277;19;20006;-78
2022/03/30 08:53:59;;;;;;;62.70;26.70;;;;;;;7.80;100.00;98440.22;12202901;19;20017;-78
2022/03/30 08:58:00;;;;;;;60.42;26.63;;;;;;;7.76;100.00;98440.75;12173348;19;20082;-76
2022/03/30 09:02:03;;;;;;;67.60;25.98;;;;;;;7.88;100.00;98439.72;12199107;19;20006;-77
2022/03/30 09:06:05;;;;;;;57.13;25.00;;;;;;;8.08;100.00;98436.25;12196772;19;20010;-77
2022/03/30 09:10:15;;;;;;;60.65;25.40;;;;;;;8.09;100.00;98433.25;12182776;19;20074;-77
2022/03/30 09:14:18;;;;;;;61.28;25.55;;;;;;;8.18;100.00;98433.56;12203121;19;20449;-78
2022/03/30 09:18:20;;;;;;;58.80;25.30;;;;;;;8.18;100.00;98434.41;12194919;19;20023;-77
2022/03/30 09:22:27;;;;;;;55.42;24.75;;;;;;;8.15;100.00;98439.56;12220724;19;20023;-78
2022/03/30 09:26:29;;;;;;;64.18;27.48;;;;;;;8.20;100.00;98437.69;12212639;19;20007;-77
2022/03/30 09:30:35;;;;;;;56.95;24.02;;;;;;;8.27;100.00;98431.97;12194732;19;20017;-76
2022/03/30 09:34:49;;;;;;;58.20;25.67;;;;;;;8.43;100.00;98432.88;12216993;19;20023;-77
2022/03/30 09:38:50;;;;;;;56.72;24.38;;;;;;;8.61;100.00;98431.53;12211334;19;20073;-77
2022/03/30 09:43:09;;;;;;;54.78;25.10;;;;;;;8.39;100.00;98440.81;12196496;19;20021;-77
2022/03/30 09:47:11;;;;;;;63.58;24.65;;;;;;;8.44;100.00;98432.56;12208653;19;20010;-77
2022/03/30 09:51:14;;;;;;;60.10;26.45;;;;;;;8.71;100.00;98437.03;12213623;19;20018;-77
2022/03/30 09:55:21;;;;;;;54.53;26.05;;;;;;;8.94;100.00;98427.47;12196716;19;20010;-77
2022/03/30 09:59:28;;;;;;;59.75;25.40;;;;;;;9.10;99.33;98426.41;12200910;19;20002;-77
2022/03/30 10:03:37;;;;;;;59.65;27.23;;;;;;;9.46;99.50;98418.16;12187688;19;20006;-78
2022/03/30 10:07:39;;;;;;;53.90;25.25;;;;;;;9.52;96.33;98406.03;12205635;19;20006;-79
2022/03/30 10:11:41;;;;;;;55.38;25.17;;;;;;;9.47;96.67;98413.47;12211982;19;20011;-77
2022/03/30 10:15:44;;;;;;;;;;;;;;;9.49;96.43;98406.59;12194987;19;20002;-76
2022/03/30 10:19:46;;;;;;;55.33;25.63;;;;;;;9.67;97.18;98402.44;12208314;19;19907;-77
2022/03/30 10:24:29;;;;;;;56.30;25.08;;;;;;;9.79;96.16;98397.47;12213041;19;20255;-78
2022/03/30 10:28:39;;;;;;;52.05;25.25;;;;;;;10.31;95.23;98400.06;12183658;19;20024;-78
2022/03/30 10:32:55;;;;;;;51.53;24.85;;;;;;;10.61;91.64;98399.06;12211601;19;20023;-77
2022/03/30 10:37:09;;;;;;;49.38;24.77;;;;;;;10.59;90.50;98393.84;12188428;19;20010;-77
2022/03/30 10:41:11;;;;;;;;;;;;;;;10.46;88.30;98386.19;12204463;19;20050;-79
2022/03/30 10:45:35;;;;;;;46.33;24.13;;;;;;;10.85;89.68;98388.16;12206288;19;19974;-77
2022/03/30 10:49:54;;;;;;;47.95;24.75;;;;;;;11.45;89.33;98382.41;12186410;19;20025;-77
2022/03/30 10:53:56;;;;;;;47.13;24.70;;;;;;;12.04;87.00;98378.50;12210917;19;20034;-78
2022/03/30 10:58:02;;;;;;;48.58;23.10;;;;;;;11.88;82.79;98375.13;12194252;19;20346;-78
2022/03/30 11:02:13;;;;;;;44.67;23.95;;;;;;;11.98;82.46;98374.16;12209326;19;20358;-78
2022/03/30 11:06:22;;;;;;;41.50;21.70;;;;;;;12.05;81.87;98369.13;12186162;19;20028;-78
2022/03/30 11:10:28;;;;;;;43.08;22.98;;;;;;;12.07;83.00;98369.63;12206241;19;20002;-77
2022/03/30 11:14:37;;;;;;;44.47;22.30;;;;;;;12.04;82.65;98378.50;12203355;19;20014;-77
2022/03/30 11:19:02;;;;;;;42.72;21.40;;;;;;;11.93;82.00;98371.47;12182757;19;20395;-77
2022/03/30 11:23:20;;;;;;;42.00;23.17;;;;;;;11.63;80.90;98356.88;12206404;19;20018;-77
2022/03/30 11:27:23;;;;;;;42.35;22.27;;;;;;;11.36;80.21;98355.50;12187759;19;20385;-77
2022/03/30 11:31:28;;;;;;;46.95;22.00;;;;;;;11.31;82.21;98354.72;12213611;19;20019;-78
2022/03/30 11:35:36;;;;;;;40.67;21.38;;;;;;;11.29;80.74;98349.47;12209435;19;20014;-81
2022/03/30 11:39:38;;;;;;;39.65;22.30;;;;;;;11.59;81.36;98350.28;12193181;19;20051;-79
2022/03/30 11:48:10;;;;;;;42.15;22.83;;;;;;;11.80;77.68;98354.47;12212654;19;20027;-79
2022/03/30 11:52:17;;;;;;;43.75;21.67;;;;;;;11.18;79.73;98350.69;12188030;19;20014;-79
2022/03/30 11:56:27;;;;;;;44.38;23.50;;;;;;;11.09;81.54;98349.66;12208698;19;20460;-81
2022/03/30 12:00:31;;;;;;;39.80;20.83;;;;;;;11.06;82.16;98347.47;12186065;19;20002;-80
2022/03/30 12:04:34;;;;;;;40.75;21.75;;;;;;;11.11;80.49;98347.44;12206546;19;20492;-81
2022/03/30 12:08:48;;;;;;;42.75;22.30;;;;;;;10.85;81.46;98344.88;12203558;19;20010;-80
2022/03/30 12:12:52;;;;;;;40.70;19.38;;;;;;;10.63;81.09;98337.06;12184625;19;20094;-81
2022/03/30 12:16:57;;;;;;;37.63;17.77;;;;;;;10.61;81.67;98343.97;12214878;19;20014;-80
2022/03/30 12:21:03;;;;;;;38.55;18.83;;;;;;;10.65;82.96;98334.03;12215303;19;20013;-81
2022/03/30 12:25:18;;;;;;;38.97;19.65;;;;;;;10.55;83.21;98336.84;12192960;19;20014;-80
2022/03/30 12:29:20;;;;;;;33.15;18.08;;;;;;;10.44;82.92;98336.94;12210230;19;20503;-82
2022/03/30 12:33:23;;;;;;;36.45;17.83;;;;;;;10.49;82.40;98344.31;12187322;19;20019;-80
2022/03/30 12:37:26;;;;;;;33.40;17.98;;;;;;;10.47;81.28;98335.53;12206207;19;20479;-81
2022/03/30 12:41:34;;;;;;;29.17;16.08;;;;;;;10.59;80.91;98333.25;12208288;19;20094;-81
2022/03/30 12:46:13;;;;;;;32.40;16.45;;;;;;;10.88;80.37;98327.78;12184243;19;19999;-80
2022/03/30 12:50:23;;;;;;;36.05;18.30;;;;;;;10.81;80.44;98335.56;12209137;19;20010;-81
2022/03/30 12:54:35;;;;;;;35.03;18.35;;;;;;;10.62;80.41;98329.06;12195435;19;20037;-80
2022/03/30 12:58:53;;;;;;;33.25;18.58;;;;;;;10.30;81.34;98321.31;12205139;19;20010;-81
2022/03/30 13:03:07;;;;;;;33.40;16.63;;;;;;;10.21;82.25;98318.31;12206709;19;20050;-81
2022/03/30 13:07:11;;;;;;;34.33;17.85;;;;;;;10.28;82.49;98313.34;12168753;19;20058;-82
2022/03/30 13:11:14;;;;;;;31.42;16.13;;;;;;;10.44;81.24;98322.31;12198360;19;20010;-83
2022/03/30 13:15:18;;;;;;;35.47;16.80;;;;;;;10.44;80.55;98309.41;12199219;19;20011;-81
2022/03/30 13:19:27;;;;;;;31.77;16.95;;;;;;;10.68;80.11;98294.91;12198827;19;20011;-80
2022/03/30 13:23:35;;;;;;;29.67;15.45;;;;;;;10.85;78.90;98302.72;12209928;19;20025;-81
2022/03/30 13:27:40;;;;;;;28.52;14.55;;;;;;;10.92;78.93;98295.78;12190799;19;20039;-82
2022/03/30 13:31:43;;;;;;;30.83;15.73;;;;;;;11.31;78.49;98297.63;12206612;19;20027;-80
2022/03/30 13:35:49;;;;;;;26.67;14.23;;;;;;;11.54;77.45;98289.63;12206194;19;20023;-80
2022/03/30 13:39:52;;;;;;;29.85;14.13;;;;;;;11.47;77.13;98280.91;12191243;19;20014;-81
2022/03/30 13:43:55;;;;;;;25.73;14.85;;;;;;;11.26;77.92;98286.63;12197593;19;20021;-82
2022/03/30 13:47:58;;;;;;;23.92;13.63;;;;;;;11.06;77.69;98282.13;12210204;19;20007;-81
2022/03/30 13:52:00;;;;;;;25.45;14.50;;;;;;;10.91;78.49;98277.59;12181355;19;20010;-80
2022/03/30 13:56:03;;;;;;;27.00;14.52;;;;;;;10.98;79.27;98268.19;12193273;19;20007;-81
2022/03/30 14:00:07;;;;;;;;;;;;;;;10.91;78.13;98269.31;12203527;19;20030;-80
2022/03/30 14:04:12;;;;;;;26.50;13.13;;;;;;;10.93;78.59;98269.88;12184353;19;19915;-80
2022/03/30 14:08:14;;;;;;;26.95;14.57;;;;;;;10.99;77.58;98261.56;12209973;19;20015;-82
2022/03/30 14:12:16;;;;;;;23.50;12.18;;;;;;;11.30;76.62;98259.28;12199924;19;20082;-80
2022/03/30 14:16:18;;;;;;;22.85;13.30;;;;;;;11.74;75.71;98267.34;12219264;19;20007;-81
2022/03/30 14:20:22;;;;;;;24.08;13.02;;;;;;;11.87;73.60;98254.81;12215480;19;20010;-80
2022/03/30 14:24:24;;;;;;;21.75;12.05;;;;;;;12.02;72.40;98267.56;12193583;19;20752;-80
2022/03/30 14:28:26;;;;;;;20.70;11.35;;;;;;;12.00;71.40;98258.75;12215011;19;21982;-81
2022/03/30 14:32:28;;;;;;;22.33;12.10;;;;;;;12.00;70.92;98254.06;12206452;19;20003;-80
2022/03/30 14:36:30;;;;;;;23.08;13.02;;;;;;;11.91;71.91;98249.50;12195598;19;20279;-81
2022/03/30 14:40:32;;;;;;;24.05;13.43;;;;;;;11.82;72.24;98238.25;12208543;19;20007;-80
2022/03/30 14:44:35;;;;;;;22.17;13.43;;;;;;;11.81;72.05;98234.69;12210025;19;20002;-81
2022/03/30 14:48:37;;;;;;;21.65;12.07;;;;;;;12.12;71.99;98230.72;12189165;19;20022;-81
2022/03/30 14:52:39;;;;;;;18.65;10.98;;;;;;;12.01;69.00;98227.25;12210979;19;20024;-83
2022/03/30 14:56:42;;;;;;;21.52;11.70;;;;;;;12.52;68.74;98232.00;12215378;19;20011;-80
2022/03/30 15:00:44;;;;;;;22.73;11.73;;;;;;;12.85;65.99;98220.94;12184823;19;20023;-80
2022/03/30 15:04:47;;;;;;;20.17;10.70;;;;;;;13.05;65.33;98217.81;12211470;19;20010;-80
2022/03/30 15:08:51;;;;;;;23.57;12.60;;;;;;;12.89;65.14;98206.22;12211413;19;20010;-81
2022/03/30 15:33:20;;;;;;;18.77;10.68;;;;;;;13.10;65.85;98205.84;12189637;19;20388;-82
2022/03/30 15:37:24;;;;;;;15.77;9.48;;;;;;;13.23;63.96;98197.56;12208904;19;20003;-81
2022/03/30 15:41:30;;;;;;;17.80;9.85;;;;;;;13.19;61.67;98198.50;12200429;19;20491;-80
2022/03/30 15:45:32;;;;;;;16.90;9.43;;;;;;;13.09;62.21;98187.63;12182701;19;20017;-82
2022/03/30 15:49:36;;;;;;;17.58;9.95;;;;;;;13.27;63.18;98186.75;12202201;19;20068;-81
2022/03/30 15:53:40;;;;;;;15.88;9.15;;;;;;;13.20;62.45;98192.63;12209280;19;20014;-81
2022/03/30 15:57:42;;;;;;;16.20;10.07;;;;;;;13.26;62.98;98192.56;12181712;19;20093;-80
2022/03/30 16:01:44;;;;;;;18.00;10.25;;;;;;;13.04;62.94;98187.72;12218539;19;20007;-80
2022/03/30 16:05:48;;;;;;;18.17;10.00;;;;;;;12.76;62.43;98180.22;12205501;19;20002;-81
2022/03/30 16:09:49;;;;;;;15.88;9.35;;;;;;;12.83;63.29;98173.47;12192085;19;20006;-81
2022/03/30 16:13:51;;;;;;;17.95;9.48;;;;;;;12.90;63.02;98179.41;12214653;19;20015;-82
2022/03/30 16:17:54;;;;;;;20.52;10.20;;;;;;;12.91;63.09;98165.28;12208296;19;20353;-80
2022/03/30 16:21:56;;;;;;;15.93;9.73;;;;;;;12.83;62.99;98162.41;12182824;19;20006;-81
2022/03/30 16:25:58;;;;;;;18.83;10.15;;;;;;;12.62;62.90;98160.00;12202849;19;20014;-81
2022/03/30 16:30:00;;;;;;;17.92;9.88;;;;;;;12.68;63.58;98166.28;12201397;19;20014;-80
2022/03/30 16:34:04;;;;;;;18.93;9.87;;;;;;;12.48;64.05;98172.97;12188130;19;20011;-80
2022/03/30 16:38:06;;;;;;;18.02;10.35;;;;;;;12.31;65.39;98179.88;12203002;19;20007;-82
2022/03/30 16:42:08;;;;;;;19.38;9.95;;;;;;;12.21;65.19;98177.25;12207155;19;20003;-80
2022/03/30 16:46:09;;;;;;;16.80;9.93;;;;;;;11.94;66.23;98182.66;12182422;19;20010;-80
2022/03/30 16:50:24;;;;;;;16.10;9.27;;;;;;;11.84;66.70;98180.84;12204148;19;20035;-81
2022/03/30 16:54:34;;;;;;;14.60;8.88;;;;;;;11.73;67.01;98188.44;12184724;19;20021;-80
2022/03/30 16:58:36;;;;;;;18.77;10.43;;;;;;;11.48;67.54;98183.25;12207130;19;20042;-80
2022/03/30 17:02:38;;;;;;;16.83;9.40;;;;;;;11.23;68.41;98187.97;12205374;19;20081;-80
2022/03/30 17:06:41;;;;;;;16.65;9.65;;;;;;;10.95;69.45;98184.97;12180877;19;20018;-80
2022/03/30 17:10:45;;;;;;;23.27;12.55;;;;;;;10.75;70.75;98179.66;12201593;19;20010;-81
2022/03/30 17:14:49;;;;;;;17.20;9.55;;;;;;;10.60;72.02;98185.34;12204975;19;20030;-80
2022/03/30 17:18:51;;;;;;;17.85;10.45;;;;;;;10.45;72.74;98184.34;12178126;19;20010;-80
2022/03/30 17:22:53;;;;;;;17.08;10.00;;;;;;;10.41;74.25;98182.44;12207941;19;20082;-78
2022/03/30 17:26:56;;;;;;;16.42;10.07;;;;;;;10.31;74.56;98177.84;12199458;19;20111;-78
2022/03/30 17:30:59;;;;;;;19.25;11.00;;;;;;;10.10;75.70;98184.59;12183050;19;20018;-78
2022/03/30 17:35:03;;;;;;;18.52;10.38;;;;;;;9.91;76.54;98179.78;12203183;19;20364;-78
2022/03/30 17:39:09;;;;;;;18.55;9.77;;;;;;;9.76;77.22;98185.38;12214586;19;20014;-78
2022/03/30 17:43:11;;;;;;;18.92;9.98;;;;;;;9.57;78.00;98176.94;12190183;19;20017;-78
2022/03/30 17:47:13;;;;;;;17.08;9.65;;;;;;;9.36;78.71;98178.97;12208347;19;20166;-78
2022/03/30 17:55:38;;;;;;;19.90;9.70;;;;;;;9.00;79.80;98186.53;12210705;19;20007;-81
2022/03/30 17:59:41;;;;;;;17.85;10.75;;;;;;;8.81;80.47;98183.56;12210387;19;20014;-81
2022/03/30 18:03:43;;;;;;;17.40;9.52;;;;;;;8.63;81.12;98187.72;12195107;19;20455;-80
2022/03/30 18:07:45;;;;;;;19.15;10.57;;;;;;;8.41;81.46;98197.06;12220427;19;20010;-80
2022/03/30 18:11:46;;;;;;;17.08;9.63;;;;;;;8.22;82.22;98198.69;12208048;19;20118;-80
2022/03/30 18:16:05;;;;;;;15.75;8.90;;;;;;;8.01;82.61;98199.78;12195037;19;20022;-80
2022/03/30 18:20:11;;;;;;;24.35;10.30;;;;;;;7.83;83.16;98190.97;12220168;19;20102;-81
2022/03/30 18:24:17;;;;;;;21.48;10.38;;;;;;;7.66;83.88;98202.16;12226215;19;20010;-80
2022/03/30 18:28:20;;;;;;;17.35;10.10;;;;;;;7.53;83.72;98203.50;12234267;19;20007;-81
2022/03/30 18:32:28;;;;;;;16.65;8.75;;;;;;;7.43;84.20;98216.34;12265688;19;20035;-81
2022/03/30 18:36:33;;;;;;;18.33;9.63;;;;;;;7.31;83.82;98211.09;12243848;19;20030;-82
2022/03/30 18:41:06;;;;;;;17.92;9.07;;;;;;;7.21;84.69;98222.00;12254412;19;20025;-80
2022/03/30 18:45:12;;;;;;;17.52;9.68;;;;;;;7.13;84.92;98223.31;12246369;19;20014;-80
2022/03/30 18:49:23;;;;;;;18.15;9.02;;;;;;;6.99;85.66;98222.16;12200556;19;20027;-78
2022/03/30 18:53:28;;;;;;;19.98;9.15;;;;;;;6.88;85.63;98221.28;12216964;19;20092;-78
2022/03/30 18:57:33;;;;;;;16.00;9.68;;;;;;;6.79;85.87;98228.34;12193076;19;20019;-79
2022/03/30 19:01:37;;;;;;;17.50;9.35;;;;;;;6.68;85.58;98224.72;12211626;19;20472;-77
2022/03/30 19:05:41;;;;;;;21.93;10.03;;;;;;;6.64;86.24;98223.59;12209083;19;20002;-78
2022/03/30 19:09:45;;;;;;;22.02;9.73;;;;;;;6.57;87.17;98222.97;12186052;19;20450;-77
2022/03/30 19:13:47;;;;;;;18.98;9.88;;;;;;;6.49;86.84;98227.06;12203145;19;20390;-79
2022/03/30 19:17:51;;;;;;;21.00;10.25;;;;;;;6.38;87.09;98226.13;12211958;19;20098;-78
2022/03/30 19:21:54;;;;;;;17.90;9.20;;;;;;;6.30;87.54;98232.06;12192944;19;20050;-77